Cape Endless — V7WB3 — position and weather

sailwx.info

Track history (hours):
 
Tides and Currents Weather Stations Pressure Air Temp Water Temp Dewpoint Dewpoint Depression Visibility Wind Speed Wind Dir Waves Ship Positions

Cape Endless

Last reported at 2017-Oct-16 22:00 UTC. Time now 2017-Oct-16 22:27 UTC.
Position N 49°51' W 003°16'.

Length 243 m; draft 4.7 m.

Type: Ship. MMSI: 538006185.

Date/timePositionNaut miles runAvg speedWind from/ knotsBaromVisibWave heightAir tempDewpointWater temp
2017-Oct-16 22:00N 49°51' W 003°16'4 8.3
2017-Oct-16 21:30N 49°53' W 003°10'4 7.7
2017-Oct-16 21:00N 49°55' W 003°05'4 7.2
2017-Oct-16 20:30N 49°57' W 003°00'3 6.7
2017-Oct-16 20:00N 49°59' W 002°56'3 5.6
2017-Oct-16 19:30N 49°60' W 002°52'3 5.4
2017-Oct-16 18:59N 50°00' W 002°47'2 4.7
2017-Oct-16 18:28N 50°01' W 002°44'3 5.5
2017-Oct-16 18:00N 50°02' W 002°40'3 5.9
2017-Oct-16 17:30N 50°03' W 002°35'62 9.7
2017-Oct-16 11:07N 50°19' W 001°02'112.8
2017-Oct-16 11:00N 50°20' W 001°00'612.2
2017-Oct-16 10:30N 50°21' W 000°51'1011.5
2017-Oct-16 09:41N 50°24' W 000°37'411.1
2017-Oct-16 09:17N 50°25' W 000°30'310.8
2017-Oct-16 09:01N 50°26' W 000°26'510.6
2017-Oct-16 08:30N 50°28' W 000°18'510.3
2017-Oct-16 08:01N 50°29' W 000°10'5 9.9
2017-Oct-16 07:31N 50°30' W 000°02'5 9.6
2017-Oct-16 07:01N 50°32' E 000°05'5 9.4
2017-Oct-16 06:31N 50°33' E 000°12'5 9.2
2017-Oct-16 06:01N 50°34' E 000°19'5 9.3
2017-Oct-16 05:31N 50°35' E 000°26'5 9.6
2017-Oct-16 05:01N 50°37' E 000°33'510.0
2017-Oct-16 04:31N 50°40' E 000°40'510.8
2017-Oct-16 04:01N 50°43' E 000°46'611.5
2017-Oct-16 03:31N 50°47' E 000°53'713.0
2017-Oct-16 03:01N 50°51' E 001°01'713.2
2017-Oct-16 02:31N 50°55' E 001°09'713.1
2017-Oct-16 02:00N 50°59' E 001°17'612.7
2017-Oct-16 01:31N 51°03' E 001°25'611.7
2017-Oct-16 01:01N 51°07' E 001°32'510.9
2017-Oct-16 00:31N 51°11' E 001°39'510.6
2017-Oct-16 00:01N 51°14' E 001°46'510.4
2017-Oct-15 23:31N 51°18' E 001°49'510.1
2017-Oct-15 23:01N 51°23' E 001°53'5 9.9
2017-Oct-15 22:31N 51°27' E 001°57'510.2
2017-Oct-15 22:01N 51°31' E 002°02'510.5
2017-Oct-15 21:31N 51°35' E 002°09'510.6
2017-Oct-15 21:01N 51°38' E 002°15'510.8
2017-Oct-15 20:30N 51°42' E 002°21'611.2
2017-Oct-15 20:01N 51°46' E 002°27'611.7
2017-Oct-15 19:28N 51°52' E 002°32'511.8
2017-Oct-15 19:01N 51°57' E 002°35'612.5
2017-Oct-15 18:30N 52°03' E 002°36'612.7
2017-Oct-15 18:00N 52°09' E 002°37'612.1
2017-Oct-15 17:30N 52°15' E 002°39'612.4
2017-Oct-15 17:00N 52°20' E 002°45'812.1
2017-Oct-15 16:20N 52°27' E 002°52'411.9
2017-Oct-15 16:00N 52°31' E 002°55'611.6
2017-Oct-15 15:30N 52°36' E 002°59'711.2
2017-Oct-15 14:50N 52°43' E 003°05'910.8
2017-Oct-15 14:00N 52°51' E 003°12'510.6
2017-Oct-15 13:30N 52°55' E 003°16'510.3
2017-Oct-15 12:59N 53°00' E 003°18'710.1
2017-Oct-15 12:19N 53°07' E 003°22'3 9.9
2017-Oct-15 12:00N 53°10' E 003°23'5 9.8
2017-Oct-15 11:31N 53°14' E 003°26'510.1
2017-Oct-15 11:01N 53°19' E 003°28'610.2
2017-Oct-15 10:27N 53°25' E 003°31'510.4
2017-Oct-15 10:01N 53°29' E 003°33'510.9
2017-Oct-15 09:30N 53°34' E 003°36'711.2
2017-Oct-15 08:54N 53°41' E 003°39'410.8
2017-Oct-15 08:31N 53°44' E 003°43'811.8
2017-Oct-15 07:51N 53°49' E 003°54'411.7
2017-Oct-15 07:31N 53°51' E 003°59'611.7
2017-Oct-15 06:58N 53°55' E 004°08'611.8
2017-Oct-15 06:27N 53°59' E 004°16'913.1
2017-Oct-15 05:46N 54°04' E 004°28'13713.0
2017-Oct-14 19:14N 55°59' E 006°39'313.0
2017-Oct-14 18:59N 56°02' E 006°42'613.0
2017-Oct-14 18:30N 56°07' E 006°48'713.1
2017-Oct-14 18:00N 56°12' E 006°55'15211.8
2017-Oct-14 05:08N 57°49' E 010°30'212.6
2017-Oct-14 05:01N 57°49' E 010°33'611.9
2017-Oct-14 04:30N 57°49' E 010°44'611.1
2017-Oct-14 04:00N 57°45' E 010°53'611.2
2017-Oct-14 03:30N 57°41' E 010°60'613.1
2017-Oct-14 03:00N 57°37' E 011°09'713.1
2017-Oct-14 02:30N 57°33' E 011°18'612.9
2017-Oct-14 02:00N 57°28' E 011°26'713.3
2017-Oct-14 01:30N 57°21' E 011°30'612.8
2017-Oct-14 01:00N 57°15' E 011°34'712.8
2017-Oct-14 00:28N 57°09' E 011°38'10911.7
2017-Oct-13 15:10N 55°22' E 011°02'313.1
2017-Oct-13 14:58N 55°19' E 011°02'712.4
2017-Oct-13 14:26N 55°13' E 011°06'512.3
2017-Oct-13 14:00N 55°09' E 011°00'713.4
2017-Oct-13 13:30N 55°03' E 010°60'612.3
2017-Oct-13 13:00N 54°57' E 010°55'612.4
2017-Oct-13 12:30N 54°51' E 010°50'612.4
2017-Oct-13 12:00N 54°45' E 010°48'510.9
2017-Oct-13 11:30N 54°40' E 010°49'612.9
2017-Oct-13 11:00N 54°37' E 010°58'612.0
2017-Oct-13 10:30N 54°37' E 011°08'612.6
2017-Oct-13 10:00N 54°34' E 011°18'612.6
2017-Oct-13 09:30N 54°31' E 011°28'713.2
2017-Oct-13 09:00N 54°29' E 011°38'612.6
2017-Oct-13 08:31N 54°27' E 011°49'712.9
2017-Oct-13 07:59N 54°27' E 012°01'612.1
2017-Oct-13 07:30N 54°27' E 012°10'612.5
2017-Oct-13 07:00N 54°33' E 012°14'612.5
2017-Oct-13 06:30N 54°38' E 012°21'713.0
2017-Oct-13 06:00N 54°41' E 012°30'612.9
2017-Oct-13 05:30N 54°44' E 012°40'713.1
2017-Oct-13 05:00N 54°48' E 012°50'913.1
2017-Oct-13 04:18N 54°51' E 013°05'2712.8
2017-Oct-13 02:12N 55°00' E 013°49'312.3
2017-Oct-13 01:57N 55°02' E 013°53'612.2
2017-Oct-13 01:27N 55°04' E 014°04'712.2
2017-Oct-13 00:52N 55°08' E 014°14'412.1
2017-Oct-13 00:30N 55°09' E 014°21'612.2
2017-Oct-13 00:00N 55°13' E 014°30'612.5
2017-Oct-12 23:30N 55°17' E 014°38'611.6
2017-Oct-12 23:00N 55°20' E 014°47'510.7
2017-Oct-12 22:30N 55°17' E 014°54'2 3.8
2017-Oct-12 22:00N 55°18' E 014°56'510.1
2017-Oct-12 21:30N 55°22' E 015°03'611.2
2017-Oct-12 21:00N 55°23' E 015°12'611.5
2017-Oct-12 20:30N 55°24' E 015°22'611.5
2017-Oct-12 20:00N 55°24' E 015°32'611.4
2017-Oct-12 19:30N 55°25' E 015°42'611.2
2017-Oct-12 19:00N 55°26' E 015°52'611.2
2017-Oct-12 18:30N 55°26' E 016°02'15011.1
2017-Oct-12 05:02N 55°43' E 020°25'  
2017-Oct-08 00:07N 55°27' E 016°06'1 9.9
2017-Oct-08 00:00N 55°26' E 016°04'9 9.9
2017-Oct-07 23:05N 55°25' E 015°48'1 9.9
2017-Oct-07 23:00N 55°25' E 015°47'1110.3
2017-Oct-07 21:56N 55°24' E 015°28'410.3
2017-Oct-07 21:31N 55°24' E 015°20'510.5
2017-Oct-07 21:00N 55°23' E 015°10'510.4
2017-Oct-07 20:30N 55°21' E 015°02'510.4
2017-Oct-07 20:01N 55°19' E 014°54'4 7.1
2017-Oct-07 19:29N 55°19' E 014°48'4 9.5
2017-Oct-07 19:01N 55°18' E 014°40'510.5
2017-Oct-07 18:30N 55°14' E 014°34'510.6
2017-Oct-07 18:01N 55°11' E 014°27'510.5
2017-Oct-07 17:31N 55°07' E 014°20'510.6
2017-Oct-07 17:01N 55°04' E 014°13'510.4
2017-Oct-07 16:30N 55°00' E 014°06'810.7
2017-Oct-07 15:45N 54°58' E 013°52'410.7
2017-Oct-07 15:24N 54°57' E 013°46'510.7
2017-Oct-07 14:57N 54°56' E 013°38'4210.8
2017-Oct-07 11:02N 54°40' E 012°30'011.4
2017-Oct-07 11:00N 54°40' E 012°30'611.7
2017-Oct-07 10:30N 54°36' E 012°21'610.7
2017-Oct-07 09:56N 54°31' E 012°15'510.5
2017-Oct-07 09:30N 54°27' E 012°12'1310.5
2017-Oct-07 08:15N 54°25' E 011°50'1111.7
2017-Oct-07 07:19N 54°29' E 011°33'411.5
2017-Oct-07 07:01N 54°30' E 011°27'611.5
2017-Oct-07 06:31N 54°33' E 011°18'612.1
2017-Oct-07 06:01N 54°36' E 011°09'611.1
2017-Oct-07 05:30N 54°39' E 011°00'611.1
2017-Oct-07 05:01N 54°42' E 010°53'611.0
2017-Oct-07 04:30N 54°47' E 010°52'611.9
2017-Oct-07 04:01N 54°53' E 010°53'611.4
2017-Oct-07 03:31N 54°58' E 010°58'611.1
2017-Oct-07 03:00N 55°03' E 011°02'612.0
2017-Oct-07 02:30N 55°09' E 011°03'510.3
2017-Oct-07 02:00N 55°14' E 011°06'711.9
2017-Oct-07 01:27N 55°20' E 011°02'  
Track history (hours):
 
Tides and Currents Weather Stations Pressure Air Temp Water Temp Dewpoint Dewpoint Depression Visibility Wind Speed Wind Dir Waves Ship Positions

Cape Endless

Last reported at 2017-Oct-16 22:00 UTC. Time now 2017-Oct-16 22:27 UTC.
Position N 49°51' W 003°16'.

Length 243 m; draft 4.7 m.

Type: Ship. MMSI: 538006185.

Date/timePositionNaut miles runAvg speedWind from/ knotsBaromVisibWave heightAir tempDewpointWater temp
2017-Oct-16 22:00N 49°51' W 003°16'4 8.3
2017-Oct-16 21:30N 49°53' W 003°10'4 7.7
2017-Oct-16 21:00N 49°55' W 003°05'4 7.2
2017-Oct-16 20:30N 49°57' W 003°00'3 6.7
2017-Oct-16 20:00N 49°59' W 002°56'3 5.6
2017-Oct-16 19:30N 49°60' W 002°52'3 5.4
2017-Oct-16 18:59N 50°00' W 002°47'2 4.7
2017-Oct-16 18:28N 50°01' W 002°44'3 5.5
2017-Oct-16 18:00N 50°02' W 002°40'3 5.9
2017-Oct-16 17:30N 50°03' W 002°35'62 9.7
2017-Oct-16 11:07N 50°19' W 001°02'112.8
2017-Oct-16 11:00N 50°20' W 001°00'612.2
2017-Oct-16 10:30N 50°21' W 000°51'1011.5
2017-Oct-16 09:41N 50°24' W 000°37'411.1
2017-Oct-16 09:17N 50°25' W 000°30'310.8
2017-Oct-16 09:01N 50°26' W 000°26'510.6
2017-Oct-16 08:30N 50°28' W 000°18'510.3
2017-Oct-16 08:01N 50°29' W 000°10'5 9.9
2017-Oct-16 07:31N 50°30' W 000°02'5 9.6
2017-Oct-16 07:01N 50°32' E 000°05'5 9.4
2017-Oct-16 06:31N 50°33' E 000°12'5 9.2
2017-Oct-16 06:01N 50°34' E 000°19'5 9.3
2017-Oct-16 05:31N 50°35' E 000°26'5 9.6
2017-Oct-16 05:01N 50°37' E 000°33'510.0
2017-Oct-16 04:31N 50°40' E 000°40'510.8
2017-Oct-16 04:01N 50°43' E 000°46'611.5
2017-Oct-16 03:31N 50°47' E 000°53'713.0
2017-Oct-16 03:01N 50°51' E 001°01'713.2
2017-Oct-16 02:31N 50°55' E 001°09'713.1
2017-Oct-16 02:00N 50°59' E 001°17'612.7
2017-Oct-16 01:31N 51°03' E 001°25'611.7
2017-Oct-16 01:01N 51°07' E 001°32'510.9
2017-Oct-16 00:31N 51°11' E 001°39'510.6
2017-Oct-16 00:01N 51°14' E 001°46'510.4
2017-Oct-15 23:31N 51°18' E 001°49'510.1
2017-Oct-15 23:01N 51°23' E 001°53'5 9.9
2017-Oct-15 22:31N 51°27' E 001°57'510.2
2017-Oct-15 22:01N 51°31' E 002°02'510.5
2017-Oct-15 21:31N 51°35' E 002°09'510.6
2017-Oct-15 21:01N 51°38' E 002°15'510.8
2017-Oct-15 20:30N 51°42' E 002°21'611.2
2017-Oct-15 20:01N 51°46' E 002°27'611.7
2017-Oct-15 19:28N 51°52' E 002°32'511.8
2017-Oct-15 19:01N 51°57' E 002°35'612.5
2017-Oct-15 18:30N 52°03' E 002°36'612.7
2017-Oct-15 18:00N 52°09' E 002°37'612.1
2017-Oct-15 17:30N 52°15' E 002°39'612.4
2017-Oct-15 17:00N 52°20' E 002°45'812.1
2017-Oct-15 16:20N 52°27' E 002°52'411.9
2017-Oct-15 16:00N 52°31' E 002°55'611.6
2017-Oct-15 15:30N 52°36' E 002°59'711.2
2017-Oct-15 14:50N 52°43' E 003°05'910.8
2017-Oct-15 14:00N 52°51' E 003°12'510.6
2017-Oct-15 13:30N 52°55' E 003°16'510.3
2017-Oct-15 12:59N 53°00' E 003°18'710.1
2017-Oct-15 12:19N 53°07' E 003°22'3 9.9
2017-Oct-15 12:00N 53°10' E 003°23'5 9.8
2017-Oct-15 11:31N 53°14' E 003°26'510.1
2017-Oct-15 11:01N 53°19' E 003°28'610.2
2017-Oct-15 10:27N 53°25' E 003°31'510.4
2017-Oct-15 10:01N 53°29' E 003°33'510.9
2017-Oct-15 09:30N 53°34' E 003°36'711.2
2017-Oct-15 08:54N 53°41' E 003°39'410.8
2017-Oct-15 08:31N 53°44' E 003°43'811.8
2017-Oct-15 07:51N 53°49' E 003°54'411.7
2017-Oct-15 07:31N 53°51' E 003°59'611.7
2017-Oct-15 06:58N 53°55' E 004°08'611.8
2017-Oct-15 06:27N 53°59' E 004°16'913.1
2017-Oct-15 05:46N 54°04' E 004°28'13713.0
2017-Oct-14 19:14N 55°59' E 006°39'313.0
2017-Oct-14 18:59N 56°02' E 006°42'613.0
2017-Oct-14 18:30N 56°07' E 006°48'713.1
2017-Oct-14 18:00N 56°12' E 006°55'15211.8
2017-Oct-14 05:08N 57°49' E 010°30'212.6
2017-Oct-14 05:01N 57°49' E 010°33'611.9
2017-Oct-14 04:30N 57°49' E 010°44'611.1
2017-Oct-14 04:00N 57°45' E 010°53'611.2
2017-Oct-14 03:30N 57°41' E 010°60'613.1
2017-Oct-14 03:00N 57°37' E 011°09'713.1
2017-Oct-14 02:30N 57°33' E 011°18'612.9
2017-Oct-14 02:00N 57°28' E 011°26'713.3
2017-Oct-14 01:30N 57°21' E 011°30'612.8
2017-Oct-14 01:00N 57°15' E 011°34'712.8
2017-Oct-14 00:28N 57°09' E 011°38'10911.7
2017-Oct-13 15:10N 55°22' E 011°02'313.1
2017-Oct-13 14:58N 55°19' E 011°02'712.4
2017-Oct-13 14:26N 55°13' E 011°06'512.3
2017-Oct-13 14:00N 55°09' E 011°00'713.4
2017-Oct-13 13:30N 55°03' E 010°60'612.3
2017-Oct-13 13:00N 54°57' E 010°55'612.4
2017-Oct-13 12:30N 54°51' E 010°50'612.4
2017-Oct-13 12:00N 54°45' E 010°48'510.9
2017-Oct-13 11:30N 54°40' E 010°49'612.9
2017-Oct-13 11:00N 54°37' E 010°58'612.0
2017-Oct-13 10:30N 54°37' E 011°08'612.6
2017-Oct-13 10:00N 54°34' E 011°18'612.6
2017-Oct-13 09:30N 54°31' E 011°28'713.2
2017-Oct-13 09:00N 54°29' E 011°38'612.6
2017-Oct-13 08:31N 54°27' E 011°49'712.9
2017-Oct-13 07:59N 54°27' E 012°01'612.1
2017-Oct-13 07:30N 54°27' E 012°10'612.5
2017-Oct-13 07:00N 54°33' E 012°14'612.5
2017-Oct-13 06:30N 54°38' E 012°21'713.0
2017-Oct-13 06:00N 54°41' E 012°30'612.9
2017-Oct-13 05:30N 54°44' E 012°40'713.1
2017-Oct-13 05:00N 54°48' E 012°50'913.1
2017-Oct-13 04:18N 54°51' E 013°05'2712.8
2017-Oct-13 02:12N 55°00' E 013°49'312.3
2017-Oct-13 01:57N 55°02' E 013°53'612.2
2017-Oct-13 01:27N 55°04' E 014°04'712.2
2017-Oct-13 00:52N 55°08' E 014°14'412.1
2017-Oct-13 00:30N 55°09' E 014°21'612.2
2017-Oct-13 00:00N 55°13' E 014°30'612.5
2017-Oct-12 23:30N 55°17' E 014°38'611.6
2017-Oct-12 23:00N 55°20' E 014°47'510.7
2017-Oct-12 22:30N 55°17' E 014°54'2 3.8
2017-Oct-12 22:00N 55°18' E 014°56'510.1
2017-Oct-12 21:30N 55°22' E 015°03'611.2
2017-Oct-12 21:00N 55°23' E 015°12'611.5
2017-Oct-12 20:30N 55°24' E 015°22'611.5
2017-Oct-12 20:00N 55°24' E 015°32'611.4
2017-Oct-12 19:30N 55°25' E 015°42'611.2
2017-Oct-12 19:00N 55°26' E 015°52'611.2
2017-Oct-12 18:30N 55°26' E 016°02'15011.1
2017-Oct-12 05:02N 55°43' E 020°25'  
2017-Oct-08 00:07N 55°27' E 016°06'1 9.9
2017-Oct-08 00:00N 55°26' E 016°04'9 9.9
2017-Oct-07 23:05N 55°25' E 015°48'1 9.9
2017-Oct-07 23:00N 55°25' E 015°47'1110.3
2017-Oct-07 21:56N 55°24' E 015°28'410.3
2017-Oct-07 21:31N 55°24' E 015°20'510.5
2017-Oct-07 21:00N 55°23' E 015°10'510.4
2017-Oct-07 20:30N 55°21' E 015°02'510.4
2017-Oct-07 20:01N 55°19' E 014°54'4 7.1
2017-Oct-07 19:29N 55°19' E 014°48'4 9.5
2017-Oct-07 19:01N 55°18' E 014°40'510.5
2017-Oct-07 18:30N 55°14' E 014°34'510.6
2017-Oct-07 18:01N 55°11' E 014°27'510.5
2017-Oct-07 17:31N 55°07' E 014°20'510.6
2017-Oct-07 17:01N 55°04' E 014°13'510.4
2017-Oct-07 16:30N 55°00' E 014°06'810.7
2017-Oct-07 15:45N 54°58' E 013°52'410.7
2017-Oct-07 15:24N 54°57' E 013°46'510.7
2017-Oct-07 14:57N 54°56' E 013°38'4210.8
2017-Oct-07 11:02N 54°40' E 012°30'011.4
2017-Oct-07 11:00N 54°40' E 012°30'611.7
2017-Oct-07 10:30N 54°36' E 012°21'610.7
2017-Oct-07 09:56N 54°31' E 012°15'510.5
2017-Oct-07 09:30N 54°27' E 012°12'1310.5
2017-Oct-07 08:15N 54°25' E 011°50'1111.7
2017-Oct-07 07:19N 54°29' E 011°33'411.5
2017-Oct-07 07:01N 54°30' E 011°27'611.5
2017-Oct-07 06:31N 54°33' E 011°18'612.1
2017-Oct-07 06:01N 54°36' E 011°09'611.1
2017-Oct-07 05:30N 54°39' E 011°00'611.1
2017-Oct-07 05:01N 54°42' E 010°53'611.0
2017-Oct-07 04:30N 54°47' E 010°52'611.9
2017-Oct-07 04:01N 54°53' E 010°53'611.4
2017-Oct-07 03:31N 54°58' E 010°58'611.1
2017-Oct-07 03:00N 55°03' E 011°02'612.0
2017-Oct-07 02:30N 55°09' E 011°03'510.3
2017-Oct-07 02:00N 55°14' E 011°06'711.9
2017-Oct-07 01:27N 55°20' E 011°02'  

Dump ship's entire track history